sensor_id;sensor_type;location;lat;lon;timestamp;temperature;humidity
81842;DHT22;71284;50.918;7.092;2024-01-30T00:01:34;11.00;56.70
81842;DHT22;71284;50.918;7.092;2024-01-30T00:04:01;11.00;56.50
81842;DHT22;71284;50.918;7.092;2024-01-30T00:06:27;11.10;56.20
81842;DHT22;71284;50.918;7.092;2024-01-30T00:08:54;10.90;56.90
81842;DHT22;71284;50.918;7.092;2024-01-30T00:11:21;10.80;57.40
81842;DHT22;71284;50.918;7.092;2024-01-30T00:13:47;10.80;57.30
81842;DHT22;71284;50.918;7.092;2024-01-30T00:16:23;10.90;57.10
81842;DHT22;71284;50.918;7.092;2024-01-30T00:18:51;11.00;56.60
81842;DHT22;71284;50.918;7.092;2024-01-30T00:21:17;10.80;57.00
81842;DHT22;71284;50.918;7.092;2024-01-30T00:23:44;10.70;57.50
81842;DHT22;71284;50.918;7.092;2024-01-30T00:26:10;10.60;57.70
81842;DHT22;71284;50.918;7.092;2024-01-30T00:28:38;10.70;57.30
81842;DHT22;71284;50.918;7.092;2024-01-30T00:31:04;10.70;57.40
81842;DHT22;71284;50.918;7.092;2024-01-30T00:33:31;10.60;57.70
81842;DHT22;71284;50.918;7.092;2024-01-30T00:35:57;10.70;57.80
81842;DHT22;71284;50.918;7.092;2024-01-30T00:38:24;10.70;57.30
81842;DHT22;71284;50.918;7.092;2024-01-30T00:40:51;10.90;56.60
81842;DHT22;71284;50.918;7.092;2024-01-30T00:43:18;10.80;56.90
81842;DHT22;71284;50.918;7.092;2024-01-30T00:45:44;10.80;56.70
81842;DHT22;71284;50.918;7.092;2024-01-30T00:48:10;10.70;57.10
81842;DHT22;71284;50.918;7.092;2024-01-30T00:50:37;10.60;57.70
81842;DHT22;71284;50.918;7.092;2024-01-30T00:53:04;10.70;57.30
81842;DHT22;71284;50.918;7.092;2024-01-30T00:55:30;10.70;57.40
81842;DHT22;71284;50.918;7.092;2024-01-30T00:57:57;10.70;57.40
81842;DHT22;71284;50.918;7.092;2024-01-30T01:00:23;10.70;57.30
81842;DHT22;71284;50.918;7.092;2024-01-30T01:02:50;10.70;57.00
81842;DHT22;71284;50.918;7.092;2024-01-30T01:05:17;10.80;57.10
81842;DHT22;71284;50.918;7.092;2024-01-30T01:07:43;10.80;57.80
81842;DHT22;71284;50.918;7.092;2024-01-30T01:10:10;10.80;57.00
81842;DHT22;71284;50.918;7.092;2024-01-30T01:12:36;10.70;57.10
81842;DHT22;71284;50.918;7.092;2024-01-30T01:15:03;10.80;56.60
81842;DHT22;71284;50.918;7.092;2024-01-30T01:17:30;10.80;57.30
81842;DHT22;71284;50.918;7.092;2024-01-30T01:19:57;10.80;57.10
81842;DHT22;71284;50.918;7.092;2024-01-30T01:22:23;10.90;56.70
81842;DHT22;71284;50.918;7.092;2024-01-30T01:24:50;10.90;56.50
81842;DHT22;71284;50.918;7.092;2024-01-30T01:27:17;10.80;57.00
81842;DHT22;71284;50.918;7.092;2024-01-30T01:29:44;10.80;56.80
81842;DHT22;71284;50.918;7.092;2024-01-30T01:32:10;10.90;56.90
81842;DHT22;71284;50.918;7.092;2024-01-30T01:34:37;10.90;57.00
81842;DHT22;71284;50.918;7.092;2024-01-30T01:37:03;10.90;56.40
81842;DHT22;71284;50.918;7.092;2024-01-30T01:39:30;11.00;56.30
81842;DHT22;71284;50.918;7.092;2024-01-30T01:41:57;10.90;56.80
81842;DHT22;71284;50.918;7.092;2024-01-30T01:44:23;10.90;56.80
81842;DHT22;71284;50.918;7.092;2024-01-30T01:46:50;10.90;56.80
81842;DHT22;71284;50.918;7.092;2024-01-30T01:49:16;10.90;56.80
81842;DHT22;71284;50.918;7.092;2024-01-30T01:51:43;10.70;58.20
81842;DHT22;71284;50.918;7.092;2024-01-30T01:54:09;10.70;57.50
81842;DHT22;71284;50.918;7.092;2024-01-30T01:56:36;10.70;57.30
81842;DHT22;71284;50.918;7.092;2024-01-30T01:59:06;10.90;57.20
81842;DHT22;71284;50.918;7.092;2024-01-30T02:01:35;10.90;56.70
81842;DHT22;71284;50.918;7.092;2024-01-30T02:04:00;10.80;57.00
81842;DHT22;71284;50.918;7.092;2024-01-30T02:06:27;11.00;56.60
81842;DHT22;71284;50.918;7.092;2024-01-30T02:08:54;11.10;56.20
81842;DHT22;71284;50.918;7.092;2024-01-30T02:11:21;11.00;56.30
81842;DHT22;71284;50.918;7.092;2024-01-30T02:13:47;10.90;56.60
81842;DHT22;71284;50.918;7.092;2024-01-30T02:16:13;10.90;56.60
81842;DHT22;71284;50.918;7.092;2024-01-30T02:18:40;10.90;56.50
81842;DHT22;71284;50.918;7.092;2024-01-30T02:21:07;11.00;56.10
81842;DHT22;71284;50.918;7.092;2024-01-30T02:23:34;10.80;57.20
81842;DHT22;71284;50.918;7.092;2024-01-30T02:26:00;10.80;57.10
81842;DHT22;71284;50.918;7.092;2024-01-30T02:28:27;10.60;58.00
81842;DHT22;71284;50.918;7.092;2024-01-30T02:30:53;10.80;57.40
81842;DHT22;71284;50.918;7.092;2024-01-30T02:33:20;10.60;57.70
81842;DHT22;71284;50.918;7.092;2024-01-30T02:35:47;10.70;57.40
81842;DHT22;71284;50.918;7.092;2024-01-30T02:38:15;10.80;57.00
81842;DHT22;71284;50.918;7.092;2024-01-30T02:40:40;10.90;56.90
81842;DHT22;71284;50.918;7.092;2024-01-30T02:43:07;10.90;57.10
81842;DHT22;71284;50.918;7.092;2024-01-30T02:45:34;10.90;57.10
81842;DHT22;71284;50.918;7.092;2024-01-30T02:48:00;11.00;56.60
81842;DHT22;71284;50.918;7.092;2024-01-30T02:50:27;11.10;56.20
81842;DHT22;71284;50.918;7.092;2024-01-30T02:52:53;11.10;56.20
81842;DHT22;71284;50.918;7.092;2024-01-30T02:55:20;11.20;55.80
81842;DHT22;71284;50.918;7.092;2024-01-30T02:57:47;11.20;55.60
81842;DHT22;71284;50.918;7.092;2024-01-30T03:00:13;11.00;56.50
81842;DHT22;71284;50.918;7.092;2024-01-30T03:02:40;11.00;57.20
81842;DHT22;71284;50.918;7.092;2024-01-30T03:05:07;10.90;56.90
81842;DHT22;71284;50.918;7.092;2024-01-30T03:07:33;10.90;57.10
81842;DHT22;71284;50.918;7.092;2024-01-30T03:10:00;11.00;56.60
81842;DHT22;71284;50.918;7.092;2024-01-30T03:12:26;11.00;56.50
81842;DHT22;71284;50.918;7.092;2024-01-30T03:14:53;11.00;56.40
81842;DHT22;71284;50.918;7.092;2024-01-30T03:17:20;11.00;56.40
81842;DHT22;71284;50.918;7.092;2024-01-30T03:19:46;10.80;57.10
81842;DHT22;71284;50.918;7.092;2024-01-30T03:22:13;10.70;57.20
81842;DHT22;71284;50.918;7.092;2024-01-30T03:24:39;10.80;57.00
81842;DHT22;71284;50.918;7.092;2024-01-30T03:27:06;10.90;56.80
81842;DHT22;71284;50.918;7.092;2024-01-30T03:29:32;10.90;56.60
81842;DHT22;71284;50.918;7.092;2024-01-30T03:31:59;11.00;56.70
81842;DHT22;71284;50.918;7.092;2024-01-30T03:34:26;10.80;57.10
81842;DHT22;71284;50.918;7.092;2024-01-30T03:36:52;10.80;57.00
81842;DHT22;71284;50.918;7.092;2024-01-30T03:39:19;10.70;57.30
81842;DHT22;71284;50.918;7.092;2024-01-30T03:41:45;10.70;57.30
81842;DHT22;71284;50.918;7.092;2024-01-30T03:44:12;10.70;57.30
81842;DHT22;71284;50.918;7.092;2024-01-30T03:46:39;10.90;56.90
81842;DHT22;71284;50.918;7.092;2024-01-30T03:49:05;10.80;57.00
81842;DHT22;71284;50.918;7.092;2024-01-30T03:51:32;10.80;56.90
81842;DHT22;71284;50.918;7.092;2024-01-30T03:53:58;10.70;57.70
81842;DHT22;71284;50.918;7.092;2024-01-30T03:56:25;10.70;57.50
81842;DHT22;71284;50.918;7.092;2024-01-30T03:58:52;10.70;57.10
81842;DHT22;71284;50.918;7.092;2024-01-30T04:01:18;10.70;57.40
81842;DHT22;71284;50.918;7.092;2024-01-30T04:03:45;10.80;57.50
81842;DHT22;71284;50.918;7.092;2024-01-30T04:06:11;10.70;57.40
81842;DHT22;71284;50.918;7.092;2024-01-30T04:08:38;10.80;56.90
81842;DHT22;71284;50.918;7.092;2024-01-30T04:11:05;10.90;56.80
81842;DHT22;71284;50.918;7.092;2024-01-30T04:13:33;10.80;57.10
81842;DHT22;71284;50.918;7.092;2024-01-30T04:15:59;10.80;56.90
81842;DHT22;71284;50.918;7.092;2024-01-30T04:18:27;10.90;56.50
81842;DHT22;71284;50.918;7.092;2024-01-30T04:20:53;10.80;57.60
81842;DHT22;71284;50.918;7.092;2024-01-30T04:23:20;10.90;56.80
81842;DHT22;71284;50.918;7.092;2024-01-30T04:25:46;10.80;56.90
81842;DHT22;71284;50.918;7.092;2024-01-30T04:28:13;10.80;57.00
81842;DHT22;71284;50.918;7.092;2024-01-30T04:30:39;10.80;56.80
81842;DHT22;71284;50.918;7.092;2024-01-30T04:33:06;10.60;57.70
81842;DHT22;71284;50.918;7.092;2024-01-30T04:35:33;10.60;57.50
81842;DHT22;71284;50.918;7.092;2024-01-30T04:37:59;10.60;57.70
81842;DHT22;71284;50.918;7.092;2024-01-30T04:40:26;10.70;57.30
81842;DHT22;71284;50.918;7.092;2024-01-30T04:42:52;10.70;57.10
81842;DHT22;71284;50.918;7.092;2024-01-30T04:45:19;10.70;57.20
81842;DHT22;71284;50.918;7.092;2024-01-30T04:47:45;10.70;57.60
81842;DHT22;71284;50.918;7.092;2024-01-30T04:50:13;10.70;57.30
81842;DHT22;71284;50.918;7.092;2024-01-30T04:52:39;10.70;57.40
81842;DHT22;71284;50.918;7.092;2024-01-30T04:55:06;10.70;57.20
81842;DHT22;71284;50.918;7.092;2024-01-30T04:57:33;10.80;57.10
81842;DHT22;71284;50.918;7.092;2024-01-30T04:59:59;10.70;57.10
81842;DHT22;71284;50.918;7.092;2024-01-30T05:02:26;10.60;57.30
81842;DHT22;71284;50.918;7.092;2024-01-30T05:04:52;10.60;57.50
81842;DHT22;71284;50.918;7.092;2024-01-30T05:07:19;10.60;57.40
81842;DHT22;71284;50.918;7.092;2024-01-30T05:09:46;10.60;57.30
81842;DHT22;71284;50.918;7.092;2024-01-30T05:12:12;10.50;57.70
81842;DHT22;71284;50.918;7.092;2024-01-30T05:14:39;10.50;57.70
81842;DHT22;71284;50.918;7.092;2024-01-30T05:17:06;10.60;57.40
81842;DHT22;71284;50.918;7.092;2024-01-30T05:19:32;10.40;57.80
81842;DHT22;71284;50.918;7.092;2024-01-30T05:21:59;10.20;58.50
81842;DHT22;71284;50.918;7.092;2024-01-30T05:24:26;10.30;58.10
81842;DHT22;71284;50.918;7.092;2024-01-30T05:26:52;10.30;58.00
81842;DHT22;71284;50.918;7.092;2024-01-30T05:29:19;10.20;59.10
81842;DHT22;71284;50.918;7.092;2024-01-30T05:31:45;10.20;58.20
81842;DHT22;71284;50.918;7.092;2024-01-30T05:34:12;10.10;58.80
81842;DHT22;71284;50.918;7.092;2024-01-30T05:36:39;10.00;58.70
81842;DHT22;71284;50.918;7.092;2024-01-30T05:39:05;10.00;59.10
81842;DHT22;71284;50.918;7.092;2024-01-30T05:41:32;10.00;58.70
81842;DHT22;71284;50.918;7.092;2024-01-30T05:43:58;9.90;59.10
81842;DHT22;71284;50.918;7.092;2024-01-30T05:46:25;9.90;59.20
81842;DHT22;71284;50.918;7.092;2024-01-30T05:48:52;9.90;59.00
81842;DHT22;71284;50.918;7.092;2024-01-30T05:51:18;9.90;59.30
81842;DHT22;71284;50.918;7.092;2024-01-30T05:53:45;9.90;59.20
81842;DHT22;71284;50.918;7.092;2024-01-30T05:56:11;10.00;58.90
81842;DHT22;71284;50.918;7.092;2024-01-30T05:58:38;10.00;59.00
81842;DHT22;71284;50.918;7.092;2024-01-30T06:01:07;10.10;59.00
81842;DHT22;71284;50.918;7.092;2024-01-30T06:03:35;10.00;59.00
81842;DHT22;71284;50.918;7.092;2024-01-30T06:06:01;10.00;59.20
81842;DHT22;71284;50.918;7.092;2024-01-30T06:08:28;10.00;59.00
81842;DHT22;71284;50.918;7.092;2024-01-30T06:10:55;10.20;58.70
81842;DHT22;71284;50.918;7.092;2024-01-30T06:13:21;10.00;59.20
81842;DHT22;71284;50.918;7.092;2024-01-30T06:15:48;10.10;58.90
81842;DHT22;71284;50.918;7.092;2024-01-30T06:18:14;10.20;59.20
81842;DHT22;71284;50.918;7.092;2024-01-30T06:20:41;10.10;59.40
81842;DHT22;71284;50.918;7.092;2024-01-30T06:23:08;10.10;59.90
81842;DHT22;71284;50.918;7.092;2024-01-30T06:25:34;10.20;58.90
81842;DHT22;71284;50.918;7.092;2024-01-30T06:28:01;10.10;59.60
81842;DHT22;71284;50.918;7.092;2024-01-30T06:30:27;10.10;59.50
81842;DHT22;71284;50.918;7.092;2024-01-30T06:32:54;9.90;60.20
81842;DHT22;71284;50.918;7.092;2024-01-30T06:35:20;10.10;59.40
81842;DHT22;71284;50.918;7.092;2024-01-30T06:37:47;10.00;59.60
81842;DHT22;71284;50.918;7.092;2024-01-30T06:40:14;10.20;59.20
81842;DHT22;71284;50.918;7.092;2024-01-30T06:42:40;10.20;59.60
81842;DHT22;71284;50.918;7.092;2024-01-30T06:45:07;10.20;59.30
81842;DHT22;71284;50.918;7.092;2024-01-30T06:47:34;10.10;59.70
81842;DHT22;71284;50.918;7.092;2024-01-30T06:50:00;10.10;59.90
81842;DHT22;71284;50.918;7.092;2024-01-30T06:52:27;10.30;58.90
81842;DHT22;71284;50.918;7.092;2024-01-30T06:54:54;10.30;59.30
81842;DHT22;71284;50.918;7.092;2024-01-30T06:57:20;10.30;58.80
81842;DHT22;71284;50.918;7.092;2024-01-30T06:59:47;10.30;59.00
81842;DHT22;71284;50.918;7.092;2024-01-30T07:02:13;10.30;58.80
81842;DHT22;71284;50.918;7.092;2024-01-30T07:04:40;10.40;58.30
81842;DHT22;71284;50.918;7.092;2024-01-30T07:07:07;10.30;59.10
81842;DHT22;71284;50.918;7.092;2024-01-30T07:09:33;10.30;59.10
81842;DHT22;71284;50.918;7.092;2024-01-30T07:12:00;10.40;59.00
81842;DHT22;71284;50.918;7.092;2024-01-30T07:14:26;10.50;58.30
81842;DHT22;71284;50.918;7.092;2024-01-30T07:16:53;10.60;58.30
81842;DHT22;71284;50.918;7.092;2024-01-30T07:19:20;10.50;58.70
81842;DHT22;71284;50.918;7.092;2024-01-30T07:21:46;10.60;58.30
81842;DHT22;71284;50.918;7.092;2024-01-30T07:24:13;10.70;58.20
81842;DHT22;71284;50.918;7.092;2024-01-30T07:26:39;10.70;58.00
81842;DHT22;71284;50.918;7.092;2024-01-30T07:29:06;10.70;58.20
81842;DHT22;71284;50.918;7.092;2024-01-30T07:31:33;10.70;57.90
81842;DHT22;71284;50.918;7.092;2024-01-30T07:33:59;10.80;57.70
81842;DHT22;71284;50.918;7.092;2024-01-30T07:36:26;10.70;57.80
81842;DHT22;71284;50.918;7.092;2024-01-30T07:38:52;10.80;57.60
81842;DHT22;71284;50.918;7.092;2024-01-30T07:41:19;10.80;57.60
81842;DHT22;71284;50.918;7.092;2024-01-30T07:43:45;10.70;57.80
81842;DHT22;71284;50.918;7.092;2024-01-30T07:46:13;10.90;57.40
81842;DHT22;71284;50.918;7.092;2024-01-30T07:48:39;10.90;57.90
81842;DHT22;71284;50.918;7.092;2024-01-30T07:51:06;10.90;57.30
81842;DHT22;71284;50.918;7.092;2024-01-30T07:53:32;10.90;57.80
81842;DHT22;71284;50.918;7.092;2024-01-30T07:55:59;10.90;57.20
81842;DHT22;71284;50.918;7.092;2024-01-30T07:58:26;10.70;58.80
81842;DHT22;71284;50.918;7.092;2024-01-30T08:00:53;10.70;58.20
81842;DHT22;71284;50.918;7.092;2024-01-30T08:03:19;10.90;57.70
81842;DHT22;71284;50.918;7.092;2024-01-30T08:05:46;10.80;57.80
81842;DHT22;71284;50.918;7.092;2024-01-30T08:08:13;10.80;58.00
81842;DHT22;71284;50.918;7.092;2024-01-30T08:10:39;10.80;58.10
81842;DHT22;71284;50.918;7.092;2024-01-30T08:13:06;10.90;57.60
81842;DHT22;71284;50.918;7.092;2024-01-30T08:15:32;10.90;57.70
81842;DHT22;71284;50.918;7.092;2024-01-30T08:17:59;10.90;57.80
81842;DHT22;71284;50.918;7.092;2024-01-30T08:20:26;11.00;57.60
81842;DHT22;71284;50.918;7.092;2024-01-30T08:22:52;11.10;57.30
81842;DHT22;71284;50.918;7.092;2024-01-30T08:28:01;11.20;57.10
81842;DHT22;71284;50.918;7.092;2024-01-30T08:30:27;11.00;58.10
81842;DHT22;71284;50.918;7.092;2024-01-30T08:32:54;10.90;57.90
81842;DHT22;71284;50.918;7.092;2024-01-30T08:35:21;10.90;58.30
81842;DHT22;71284;50.918;7.092;2024-01-30T08:37:47;10.90;58.10
81842;DHT22;71284;50.918;7.092;2024-01-30T08:40:14;11.00;57.90
81842;DHT22;71284;50.918;7.092;2024-01-30T08:42:40;11.10;57.70
81842;DHT22;71284;50.918;7.092;2024-01-30T08:45:09;10.90;59.10
81842;DHT22;71284;50.918;7.092;2024-01-30T08:47:35;11.10;58.10
81842;DHT22;71284;50.918;7.092;2024-01-30T08:50:02;11.20;57.70
81842;DHT22;71284;50.918;7.092;2024-01-30T08:52:28;11.40;57.30
81842;DHT22;71284;50.918;7.092;2024-01-30T08:54:55;11.50;57.10
81842;DHT22;71284;50.918;7.092;2024-01-30T08:57:22;11.50;57.20
81842;DHT22;71284;50.918;7.092;2024-01-30T08:59:48;11.70;56.70
81842;DHT22;71284;50.918;7.092;2024-01-30T09:02:15;11.80;56.20
81842;DHT22;71284;50.918;7.092;2024-01-30T09:04:41;11.90;56.20
81842;DHT22;71284;50.918;7.092;2024-01-30T09:07:08;12.00;55.50
81842;DHT22;71284;50.918;7.092;2024-01-30T09:09:35;12.20;55.20
81842;DHT22;71284;50.918;7.092;2024-01-30T09:12:01;12.30;55.20
81842;DHT22;71284;50.918;7.092;2024-01-30T09:14:28;12.40;55.20
81842;DHT22;71284;50.918;7.092;2024-01-30T09:16:54;12.40;54.50
81842;DHT22;71284;50.918;7.092;2024-01-30T09:19:21;12.50;54.50
81842;DHT22;71284;50.918;7.092;2024-01-30T09:21:48;12.50;54.60
81842;DHT22;71284;50.918;7.092;2024-01-30T09:24:14;12.40;54.80
81842;DHT22;71284;50.918;7.092;2024-01-30T09:26:41;12.40;55.10
81842;DHT22;71284;50.918;7.092;2024-01-30T09:29:07;12.30;55.40
81842;DHT22;71284;50.918;7.092;2024-01-30T09:31:34;12.30;55.60
81842;DHT22;71284;50.918;7.092;2024-01-30T09:34:01;12.50;54.70
81842;DHT22;71284;50.918;7.092;2024-01-30T09:36:27;12.90;53.90
81842;DHT22;71284;50.918;7.092;2024-01-30T09:38:54;12.90;53.70
81842;DHT22;71284;50.918;7.092;2024-01-30T09:41:20;13.10;53.50
81842;DHT22;71284;50.918;7.092;2024-01-30T09:43:47;13.00;53.80
81842;DHT22;71284;50.918;7.092;2024-01-30T09:46:14;13.00;53.90
81842;DHT22;71284;50.918;7.092;2024-01-30T09:48:41;13.00;53.80
81842;DHT22;71284;50.918;7.092;2024-01-30T09:51:09;13.00;54.30
81842;DHT22;71284;50.918;7.092;2024-01-30T09:53:35;13.10;53.80
81842;DHT22;71284;50.918;7.092;2024-01-30T09:56:02;13.40;52.90
81842;DHT22;71284;50.918;7.092;2024-01-30T09:58:28;13.10;53.40
81842;DHT22;71284;50.918;7.092;2024-01-30T10:00:54;13.30;53.40
81842;DHT22;71284;50.918;7.092;2024-01-30T10:03:21;13.20;53.70
81842;DHT22;71284;50.918;7.092;2024-01-30T10:05:51;13.40;52.90
81842;DHT22;71284;50.918;7.092;2024-01-30T10:08:17;13.60;52.50
81842;DHT22;71284;50.918;7.092;2024-01-30T10:10:45;13.60;52.80
81842;DHT22;71284;50.918;7.092;2024-01-30T10:13:10;13.50;52.80
81842;DHT22;71284;50.918;7.092;2024-01-30T10:15:37;13.80;52.30
81842;DHT22;71284;50.918;7.092;2024-01-30T10:18:04;14.00;52.00
81842;DHT22;71284;50.918;7.092;2024-01-30T10:20:30;14.20;51.70
81842;DHT22;71284;50.918;7.092;2024-01-30T10:22:57;14.60;50.20
81842;DHT22;71284;50.918;7.092;2024-01-30T10:25:25;14.70;49.60
81842;DHT22;71284;50.918;7.092;2024-01-30T10:27:53;14.80;49.80
81842;DHT22;71284;50.918;7.092;2024-01-30T10:30:20;14.80;49.20
81842;DHT22;71284;50.918;7.092;2024-01-30T10:32:46;14.60;50.00
81842;DHT22;71284;50.918;7.092;2024-01-30T10:35:13;14.70;50.10
81842;DHT22;71284;50.918;7.092;2024-01-30T10:37:40;14.60;50.20
81842;DHT22;71284;50.918;7.092;2024-01-30T10:40:07;14.40;50.90
81842;DHT22;71284;50.918;7.092;2024-01-30T10:42:35;14.60;50.80
81842;DHT22;71284;50.918;7.092;2024-01-30T10:45:16;14.60;50.20
81842;DHT22;71284;50.918;7.092;2024-01-30T10:47:59;14.40;51.90
81842;DHT22;71284;50.918;7.092;2024-01-30T10:50:26;14.20;51.60
81842;DHT22;71284;50.918;7.092;2024-01-30T10:52:53;14.20;51.70
81842;DHT22;71284;50.918;7.092;2024-01-30T10:55:20;14.10;52.20
81842;DHT22;71284;50.918;7.092;2024-01-30T10:57:46;14.10;52.10
81842;DHT22;71284;50.918;7.092;2024-01-30T11:00:14;14.20;51.90
81842;DHT22;71284;50.918;7.092;2024-01-30T11:02:42;14.20;52.40
81842;DHT22;71284;50.918;7.092;2024-01-30T11:05:08;14.00;52.30
81842;DHT22;71284;50.918;7.092;2024-01-30T11:07:34;14.00;52.50
81842;DHT22;71284;50.918;7.092;2024-01-30T11:10:02;14.20;52.10
81842;DHT22;71284;50.918;7.092;2024-01-30T11:12:28;14.00;52.60
81842;DHT22;71284;50.918;7.092;2024-01-30T11:15:06;14.20;52.70
81842;DHT22;71284;50.918;7.092;2024-01-30T11:17:41;14.20;52.40
81842;DHT22;71284;50.918;7.092;2024-01-30T11:20:10;14.10;52.50
81842;DHT22;71284;50.918;7.092;2024-01-30T11:22:36;14.10;52.60
81842;DHT22;71284;50.918;7.092;2024-01-30T11:25:03;14.30;52.40
81842;DHT22;71284;50.918;7.092;2024-01-30T11:27:30;14.40;51.70
81842;DHT22;71284;50.918;7.092;2024-01-30T11:30:02;14.50;51.80
81842;DHT22;71284;50.918;7.092;2024-01-30T11:32:27;14.30;52.60
81842;DHT22;71284;50.918;7.092;2024-01-30T11:34:54;14.40;52.40
81842;DHT22;71284;50.918;7.092;2024-01-30T11:37:21;14.50;52.00
81842;DHT22;71284;50.918;7.092;2024-01-30T11:39:48;14.30;52.80
81842;DHT22;71284;50.918;7.092;2024-01-30T11:42:14;14.40;52.30
81842;DHT22;71284;50.918;7.092;2024-01-30T11:44:40;14.80;51.50
81842;DHT22;71284;50.918;7.092;2024-01-30T11:47:07;14.90;51.70
81842;DHT22;71284;50.918;7.092;2024-01-30T11:49:34;15.10;51.00
81842;DHT22;71284;50.918;7.092;2024-01-30T11:52:00;15.00;51.10
81842;DHT22;71284;50.918;7.092;2024-01-30T11:54:27;15.20;50.50
81842;DHT22;71284;50.918;7.092;2024-01-30T11:56:53;15.00;51.00
81842;DHT22;71284;50.918;7.092;2024-01-30T11:59:20;15.00;51.30
81842;DHT22;71284;50.918;7.092;2024-01-30T12:01:47;15.10;51.10
81842;DHT22;71284;50.918;7.092;2024-01-30T12:04:13;15.60;50.10
81842;DHT22;71284;50.918;7.092;2024-01-30T12:06:40;15.70;50.30
81842;DHT22;71284;50.918;7.092;2024-01-30T12:09:06;15.70;49.70
81842;DHT22;71284;50.918;7.092;2024-01-30T12:11:33;15.70;50.10
81842;DHT22;71284;50.918;7.092;2024-01-30T12:14:00;15.80;49.80
81842;DHT22;71284;50.918;7.092;2024-01-30T12:16:26;16.00;49.50
81842;DHT22;71284;50.918;7.092;2024-01-30T12:19:00;15.80;49.80
81842;DHT22;71284;50.918;7.092;2024-01-30T12:21:27;15.70;49.80
81842;DHT22;71284;50.918;7.092;2024-01-30T12:23:53;15.50;50.70
81842;DHT22;71284;50.918;7.092;2024-01-30T12:26:20;15.50;50.60
81842;DHT22;71284;50.918;7.092;2024-01-30T12:28:48;15.60;49.90
81842;DHT22;71284;50.918;7.092;2024-01-30T12:31:14;15.90;49.80
81842;DHT22;71284;50.918;7.092;2024-01-30T12:33:40;15.90;49.50
81842;DHT22;71284;50.918;7.092;2024-01-30T12:36:07;16.10;49.00
81842;DHT22;71284;50.918;7.092;2024-01-30T12:38:33;16.20;48.60
81842;DHT22;71284;50.918;7.092;2024-01-30T12:41:00;16.30;48.50
81842;DHT22;71284;50.918;7.092;2024-01-30T12:43:27;16.40;49.10
81842;DHT22;71284;50.918;7.092;2024-01-30T12:45:53;16.30;48.60
81842;DHT22;71284;50.918;7.092;2024-01-30T12:48:20;16.20;48.80
81842;DHT22;71284;50.918;7.092;2024-01-30T12:50:46;16.30;48.80
81842;DHT22;71284;50.918;7.092;2024-01-30T12:53:13;16.50;48.00
81842;DHT22;71284;50.918;7.092;2024-01-30T12:55:40;16.60;48.00
81842;DHT22;71284;50.918;7.092;2024-01-30T12:58:06;16.70;47.60
81842;DHT22;71284;50.918;7.092;2024-01-30T13:00:33;16.80;47.40
81842;DHT22;71284;50.918;7.092;2024-01-30T13:02:59;16.80;47.10
81842;DHT22;71284;50.918;7.092;2024-01-30T13:05:26;16.80;46.60
81842;DHT22;71284;50.918;7.092;2024-01-30T13:07:53;17.10;46.60
81842;DHT22;71284;50.918;7.092;2024-01-30T13:10:19;17.50;45.80
81842;DHT22;71284;50.918;7.092;2024-01-30T13:12:46;17.90;44.90
81842;DHT22;71284;50.918;7.092;2024-01-30T13:15:12;17.90;44.50
81842;DHT22;71284;50.918;7.092;2024-01-30T13:17:39;18.20;44.20
81842;DHT22;71284;50.918;7.092;2024-01-30T13:20:07;18.40;43.50
81842;DHT22;71284;50.918;7.092;2024-01-30T13:22:33;18.50;43.00
81842;DHT22;71284;50.918;7.092;2024-01-30T13:25:00;18.40;42.80
81842;DHT22;71284;50.918;7.092;2024-01-30T13:27:26;18.60;42.70
81842;DHT22;71284;50.918;7.092;2024-01-30T13:29:53;18.60;42.50
81842;DHT22;71284;50.918;7.092;2024-01-30T13:32:20;18.20;43.00
81842;DHT22;71284;50.918;7.092;2024-01-30T13:34:46;18.00;43.70
81842;DHT22;71284;50.918;7.092;2024-01-30T13:37:13;17.90;43.90
81842;DHT22;71284;50.918;7.092;2024-01-30T13:39:39;17.70;44.50
81842;DHT22;71284;50.918;7.092;2024-01-30T13:42:06;17.60;44.70
81842;DHT22;71284;50.918;7.092;2024-01-30T13:44:34;17.40;45.30
81842;DHT22;71284;50.918;7.092;2024-01-30T13:46:59;17.20;45.30
81842;DHT22;71284;50.918;7.092;2024-01-30T13:49:26;17.30;45.60
81842;DHT22;71284;50.918;7.092;2024-01-30T13:51:52;17.10;45.50
81842;DHT22;71284;50.918;7.092;2024-01-30T13:54:19;16.70;47.40
81842;DHT22;71284;50.918;7.092;2024-01-30T13:56:46;16.60;47.60
81842;DHT22;71284;50.918;7.092;2024-01-30T13:59:13;16.70;47.60
81842;DHT22;71284;50.918;7.092;2024-01-30T14:01:40;16.90;47.80
81842;DHT22;71284;50.918;7.092;2024-01-30T14:04:06;16.80;47.00
81842;DHT22;71284;50.918;7.092;2024-01-30T14:06:33;16.80;47.00
81842;DHT22;71284;50.918;7.092;2024-01-30T14:08:59;16.80;46.80
81842;DHT22;71284;50.918;7.092;2024-01-30T14:11:26;16.70;48.00
81842;DHT22;71284;50.918;7.092;2024-01-30T14:13:53;16.60;47.70
81842;DHT22;71284;50.918;7.092;2024-01-30T14:16:19;16.70;47.90
81842;DHT22;71284;50.918;7.092;2024-01-30T14:18:46;16.60;48.00
81842;DHT22;71284;50.918;7.092;2024-01-30T14:21:12;16.50;47.90
81842;DHT22;71284;50.918;7.092;2024-01-30T14:23:39;16.50;47.80
81842;DHT22;71284;50.918;7.092;2024-01-30T14:26:06;16.50;47.80
81842;DHT22;71284;50.918;7.092;2024-01-30T14:28:33;16.40;48.00
81842;DHT22;71284;50.918;7.092;2024-01-30T14:30:59;16.30;48.80
81842;DHT22;71284;50.918;7.092;2024-01-30T14:33:26;16.30;48.90
81842;DHT22;71284;50.918;7.092;2024-01-30T14:35:53;16.10;49.10
81842;DHT22;71284;50.918;7.092;2024-01-30T14:38:20;16.10;49.10
81842;DHT22;71284;50.918;7.092;2024-01-30T14:40:46;16.00;48.70
81842;DHT22;71284;50.918;7.092;2024-01-30T14:43:14;16.00;48.60
81842;DHT22;71284;50.918;7.092;2024-01-30T14:45:40;16.10;49.30
81842;DHT22;71284;50.918;7.092;2024-01-30T14:48:07;15.90;49.10
81842;DHT22;71284;50.918;7.092;2024-01-30T14:50:34;15.90;49.20
81842;DHT22;71284;50.918;7.092;2024-01-30T14:53:00;15.80;49.00
81842;DHT22;71284;50.918;7.092;2024-01-30T14:55:27;15.80;49.00
81842;DHT22;71284;50.918;7.092;2024-01-30T14:57:53;15.90;49.50
81842;DHT22;71284;50.918;7.092;2024-01-30T15:00:20;15.90;49.00
81842;DHT22;71284;50.918;7.092;2024-01-30T15:02:47;15.90;49.90
81842;DHT22;71284;50.918;7.092;2024-01-30T15:05:13;15.80;49.70
81842;DHT22;71284;50.918;7.092;2024-01-30T15:07:40;15.80;49.10
81842;DHT22;71284;50.918;7.092;2024-01-30T15:10:07;15.60;49.50
81842;DHT22;71284;50.918;7.092;2024-01-30T15:12:34;15.60;49.50
81842;DHT22;71284;50.918;7.092;2024-01-30T15:15:01;15.70;50.00
81842;DHT22;71284;50.918;7.092;2024-01-30T15:17:27;15.70;49.60
81842;DHT22;71284;50.918;7.092;2024-01-30T15:19:54;15.60;49.90
81842;DHT22;71284;50.918;7.092;2024-01-30T15:22:20;15.70;50.00
81842;DHT22;71284;50.918;7.092;2024-01-30T15:24:47;15.60;51.30
81842;DHT22;71284;50.918;7.092;2024-01-30T15:27:13;15.40;51.20
81842;DHT22;71284;50.918;7.092;2024-01-30T15:29:40;15.50;51.10